Time;durP1;ratioP1;P1;durP2;ratioP2;P2;SDS_P1;SDS_P2;PMS_P1;PMS_P2;Temp;Humidity;BMP_temperature;BMP_pressure;BME280_temperature;BME280_humidity;BME280_pressure;Samples;Min_cycle;Max_cycle;Signal;HPM_P1;HPM_P2
2023/11/09 00:00:49;;;;;;;12.65;4.90;;;;;;;9.98;100.00;100103.75;6078110;19;20698;-70
2023/11/09 00:02:54;;;;;;;8.02;4.22;;;;;;;9.99;100.00;100100.19;6079797;19;20590;-69
2023/11/09 00:04:59;;;;;;;8.80;4.80;;;;;;;10.02;100.00;100099.19;6078114;19;20017;-71
2023/11/09 00:07:07;;;;;;;8.10;3.55;;;;;;;9.98;100.00;100098.50;6076211;19;20540;-72
2023/11/09 00:09:12;;;;;;;10.23;4.30;;;;;;;10.03;100.00;100088.63;6077392;19;20010;-72
2023/11/09 00:11:20;;;;;;;9.68;4.10;;;;;;;10.04;100.00;100079.81;6075821;19;20006;-72
2023/11/09 00:13:25;;;;;;;11.60;4.85;;;;;;;10.09;100.00;100082.22;6078482;19;20039;-71
2023/11/09 00:15:30;;;;;;;8.88;4.38;;;;;;;10.00;100.00;100083.50;6081767;19;20010;-73
2023/11/09 00:17:35;;;;;;;9.68;5.03;;;;;;;10.06;100.00;100082.38;6078637;19;20038;-72
2023/11/09 00:19:40;;;;;;;10.00;5.35;;;;;;;10.11;100.00;100083.00;6075155;19;20007;-73
2023/11/09 00:21:46;;;;;;;12.40;6.10;;;;;;;10.09;100.00;100076.97;6077225;19;20007;-73
2023/11/09 00:23:53;;;;;;;9.57;5.18;;;;;;;10.09;100.00;100069.09;6080485;19;20015;-72
2023/11/09 00:26:03;;;;;;;11.00;5.18;;;;;;;10.08;100.00;100068.25;6072734;19;20017;-72
2023/11/09 00:28:08;;;;;;;11.20;5.32;;;;;;;10.08;100.00;100067.38;6082516;19;20010;-71
2023/11/09 00:30:14;;;;;;;10.80;5.20;;;;;;;10.10;100.00;100073.41;6081583;19;20046;-72
2023/11/09 00:32:19;;;;;;;11.23;6.05;;;;;;;10.06;100.00;100059.59;6083215;19;20504;-71
2023/11/09 00:34:25;;;;;;;11.30;5.50;;;;;;;10.02;100.00;100060.66;6085593;19;20779;-71
2023/11/09 00:36:30;;;;;;;12.35;5.60;;;;;;;10.00;100.00;100067.75;6077282;19;20019;-72
2023/11/09 00:38:33;;;;;;;11.32;5.57;;;;;;;10.04;100.00;100056.19;6079944;19;20101;-71
2023/11/09 00:40:40;;;;;;;10.25;5.63;;;;;;;10.05;100.00;100059.66;6080163;19;20077;-71
2023/11/09 00:42:45;;;;;;;11.70;6.05;;;;;;;10.09;100.00;100061.22;6082434;19;20325;-71
2023/11/09 00:44:50;;;;;;;10.23;6.25;;;;;;;10.00;100.00;100053.78;6078711;19;20015;-71
2023/11/09 00:46:55;;;;;;;12.45;5.88;;;;;;;10.02;100.00;100058.03;6081886;19;20018;-71
2023/11/09 00:49:00;;;;;;;13.45;6.32;;;;;;;10.00;100.00;100054.63;6081386;19;20118;-71
2023/11/09 00:51:06;;;;;;;18.30;6.65;;;;;;;10.01;100.00;100052.88;6077905;19;20126;-71
2023/11/09 00:53:11;;;;;;;12.40;6.88;;;;;;;9.99;100.00;100055.56;6079294;19;20034;-71
2023/11/09 00:55:16;;;;;;;15.80;7.32;;;;;;;10.20;100.00;100058.03;6081909;19;20825;-71
2023/11/09 00:57:26;;;;;;;14.30;6.97;;;;;;;10.25;100.00;100045.53;6078229;19;20013;-71
2023/11/09 00:59:31;;;;;;;13.05;6.50;;;;;;;10.17;100.00;100052.94;6082174;19;20058;-71
2023/11/09 01:01:36;;;;;;;13.90;7.57;;;;;;;10.29;100.00;100052.31;6079617;19;20383;-71
2023/11/09 01:03:41;;;;;;;13.23;7.18;;;;;;;10.24;100.00;100054.31;6081944;19;20094;-71
2023/11/09 01:05:45;;;;;;;14.48;7.03;;;;;;;10.08;100.00;100049.00;6083603;19;20003;-72
2023/11/09 01:07:50;;;;;;;10.82;6.35;;;;;;;10.06;100.00;100046.47;6080994;19;20006;-72
2023/11/09 01:09:55;;;;;;;14.85;7.72;;;;;;;10.00;100.00;100057.25;6081781;19;20050;-72
2023/11/09 01:12:00;;;;;;;12.60;6.55;;;;;;;10.00;100.00;100057.25;6081081;19;20885;-71
2023/11/09 01:14:08;;;;;;;13.50;7.03;;;;;;;10.22;100.00;100066.69;6082261;19;20090;-71
2023/11/09 01:16:13;;;;;;;10.95;5.72;;;;;;;10.19;100.00;100074.69;6086278;19;20011;-72
2023/11/09 01:18:19;;;;;;;6.72;3.90;;;;;;;10.03;100.00;100085.13;6085675;19;20039;-73
2023/11/09 01:20:24;;;;;;;7.05;3.25;;;;;;;9.92;100.00;100080.41;6085367;19;20010;-73
2023/11/09 01:22:29;;;;;;;5.00;2.10;;;;;;;9.79;100.00;100089.81;6085005;19;20007;-71
2023/11/09 01:24:34;;;;;;;3.72;1.55;;;;;;;9.72;100.00;100091.91;6085572;19;20022;-73
2023/11/09 01:26:39;;;;;;;3.50;2.00;;;;;;;9.67;100.00;100092.13;6083830;19;20021;-72
2023/11/09 01:28:44;;;;;;;3.65;1.52;;;;;;;9.61;100.00;100091.56;6082912;19;20018;-70
2023/11/09 01:30:52;;;;;;;4.78;1.88;;;;;;;9.56;100.00;100081.31;6080035;19;20507;-72
2023/11/09 01:32:57;;;;;;;3.88;1.60;;;;;;;9.58;100.00;100068.13;6080562;19;20035;-72
2023/11/09 01:35:02;;;;;;;2.15;1.33;;;;;;;9.61;100.00;100058.34;6081323;19;20039;-71
2023/11/09 01:37:10;;;;;;;4.15;1.50;;;;;;;9.53;100.00;100025.53;6079697;19;20015;-70
2023/11/09 01:39:16;;;;;;;3.50;2.05;;;;;;;9.62;100.00;99983.94;6081366;19;20805;-70
2023/11/09 01:41:21;;;;;;;4.40;1.33;;;;;;;9.59;100.00;99984.13;6080542;19;20018;-72
2023/11/09 01:43:26;;;;;;;2.55;1.40;;;;;;;9.57;100.00;99985.97;6079833;19;20435;-72
2023/11/09 01:45:31;;;;;;;1.63;1.30;;;;;;;9.46;100.00;99985.66;6080814;19;20009;-72
2023/11/09 01:47:39;;;;;;;1.88;1.55;;;;;;;9.54;100.00;100004.47;6081087;19;20011;-71
2023/11/09 01:49:45;;;;;;;4.10;1.60;;;;;;;9.47;100.00;100015.34;6082467;19;20011;-71
2023/11/09 01:51:54;;;;;;;3.97;1.50;;;;;;;9.43;100.00;100027.75;6081837;19;20452;-71
2023/11/09 01:53:59;;;;;;;4.45;1.42;;;;;;;9.37;100.00;100049.03;6083066;19;20009;-71
2023/11/09 01:56:09;;;;;;;2.78;1.73;;;;;;;9.38;100.00;100058.59;6081784;19;20015;-71
2023/11/09 01:58:15;;;;;;;2.67;1.65;;;;;;;9.40;100.00;100068.09;6079040;19;20121;-70
2023/11/09 02:00:24;;;;;;;3.65;1.73;;;;;;;9.43;100.00;100072.34;6082271;19;20018;-71
2023/11/09 02:02:29;;;;;;;3.38;1.63;;;;;;;9.33;100.00;100085.03;6079287;19;20419;-70
2023/11/09 02:04:37;;;;;;;3.95;1.50;;;;;;;9.46;100.00;100082.69;6083337;19;20030;-71
2023/11/09 02:06:43;;;;;;;3.05;1.48;;;;;;;9.42;100.00;100081.13;6082223;19;20354;-70
2023/11/09 02:08:49;;;;;;;4.65;1.50;;;;;;;9.36;100.00;100082.25;6083394;19;20023;-70
2023/11/09 02:10:54;;;;;;;2.85;1.42;;;;;;;9.30;100.00;100071.22;6082588;19;20006;-71
2023/11/09 02:12:59;;;;;;;3.92;1.58;;;;;;;9.35;100.00;100067.47;6082381;19;20014;-71
2023/11/09 02:15:03;;;;;;;3.85;1.65;;;;;;;9.32;100.00;100062.38;6082622;19;20379;-71
2023/11/09 02:17:10;;;;;;;8.40;2.15;;;;;;;9.33;100.00;100060.59;6085178;19;20031;-72
2023/11/09 02:19:17;;;;;;;3.33;1.55;;;;;;;9.30;100.00;100060.75;6083607;19;20558;-71
2023/11/09 02:21:26;;;;;;;2.50;1.40;;;;;;;9.25;100.00;100058.34;6079834;19;20038;-70
2023/11/09 02:23:35;;;;;;;2.75;2.00;;;;;;;9.22;100.00;100059.31;6080230;19;20019;-70
2023/11/09 02:25:43;;;;;;;2.47;1.40;;;;;;;9.25;100.00;100057.50;6081810;19;20022;-70
2023/11/09 02:27:49;;;;;;;5.47;1.35;;;;;;;9.23;100.00;100050.53;6082852;19;20006;-70
2023/11/09 02:29:51;;;;;;;1.45;1.30;;;;;;;9.16;100.00;100058.75;6082203;19;20312;-71
2023/11/09 02:31:57;;;;;;;2.35;1.67;;;;;;;9.18;100.00;100052.53;6081179;19;20028;-70
2023/11/09 02:34:05;;;;;;;8.73;1.90;;;;;;;9.14;100.00;100048.38;6081329;19;20014;-71
2023/11/09 02:36:11;;;;;;;3.45;1.92;;;;;;;9.16;100.00;100049.16;6080655;19;20115;-71
2023/11/09 02:38:16;;;;;;;2.13;1.35;;;;;;;9.16;100.00;100051.75;6078783;19;20006;-70
2023/11/09 02:40:21;;;;;;;4.43;1.73;;;;;;;9.12;100.00;100052.81;6078535;19;20007;-71
2023/11/09 02:42:26;;;;;;;5.00;1.95;;;;;;;9.14;100.00;100039.66;6075653;19;20095;-70
2023/11/09 02:44:31;;;;;;;3.03;1.63;;;;;;;9.15;100.00;100041.34;6080924;19;20025;-70
2023/11/09 02:46:35;;;;;;;4.93;1.80;;;;;;;9.12;100.00;100036.25;6082131;19;20568;-70
2023/11/09 02:48:41;;;;;;;5.25;1.98;;;;;;;9.11;100.00;100038.03;6083538;19;20018;-70
2023/11/09 02:50:46;;;;;;;3.83;1.70;;;;;;;9.10;100.00;100046.78;6084797;19;20752;-70
2023/11/09 02:52:51;;;;;;;6.63;2.60;;;;;;;9.11;100.00;100050.25;6082352;19;20532;-71
2023/11/09 02:54:59;;;;;;;4.80;2.08;;;;;;;9.10;100.00;100056.44;6084784;19;20010;-70
2023/11/09 02:57:03;;;;;;;6.38;2.78;;;;;;;9.13;100.00;100056.28;6084796;19;20102;-70
2023/11/09 02:59:11;;;;;;;7.70;3.10;;;;;;;9.11;100.00;100052.88;6086921;19;20730;-71
2023/11/09 03:01:17;;;;;;;6.22;2.80;;;;;;;9.15;100.00;100057.06;6082307;19;20013;-70
2023/11/09 03:03:22;;;;;;;9.32;2.90;;;;;;;9.13;100.00;100057.13;6085393;19;20451;-71
2023/11/09 03:05:26;;;;;;;7.13;2.60;;;;;;;9.04;100.00;100060.19;6087033;19;20102;-70
2023/11/09 03:07:31;;;;;;;10.27;2.78;;;;;;;9.07;100.00;100060.03;6082618;19;20495;-70
2023/11/09 03:09:34;;;;;;;6.80;2.42;;;;;;;9.04;100.00;100054.09;6082220;19;20026;-72
2023/11/09 03:11:39;;;;;;;;;;;;;;;9.05;100.00;100061.88;6081005;19;20326;-71
2023/11/09 03:13:44;;;;;;;9.10;2.70;;;;;;;9.05;100.00;100061.88;6080141;19;20006;-71
2023/11/09 03:15:52;;;;;;;5.38;2.10;;;;;;;9.03;100.00;100042.78;6081549;19;20113;-71
2023/11/09 03:17:57;;;;;;;5.85;2.72;;;;;;;9.03;100.00;100048.03;6078163;19;20117;-71
2023/11/09 03:20:02;;;;;;;9.27;2.90;;;;;;;8.99;100.00;100056.94;6079402;19;20011;-71
2023/11/09 03:22:11;;;;;;;8.60;2.63;;;;;;;9.01;100.00;100053.31;6080322;19;20552;-71
2023/11/09 03:24:18;;;;;;;8.13;2.78;;;;;;;9.00;100.00;100053.38;6079150;19;20002;-71
2023/11/09 03:26:22;;;;;;;10.85;3.05;;;;;;;9.00;100.00;100053.38;6081466;19;20361;-71
2023/11/09 03:28:27;;;;;;;10.45;3.95;;;;;;;8.98;100.00;100055.25;6081260;19;19998;-71
2023/11/09 03:30:35;;;;;;;8.65;2.78;;;;;;;8.95;100.00;100056.25;6077328;19;20082;-71
2023/11/09 03:32:42;;;;;;;8.98;2.80;;;;;;;9.00;100.00;100058.63;6079183;19;20467;-71
2023/11/09 03:34:47;;;;;;;7.57;2.90;;;;;;;8.97;100.00;100058.78;6079162;19;20011;-70
2023/11/09 03:36:54;;;;;;;7.28;2.83;;;;;;;8.98;100.00;100061.34;6078926;19;20019;-70
2023/11/09 03:38:59;;;;;;;7.68;2.30;;;;;;;8.95;100.00;100064.09;6079387;19;20031;-71
2023/11/09 03:41:04;;;;;;;11.43;2.90;;;;;;;8.95;100.00;100077.19;6079482;19;20020;-71
2023/11/09 03:43:09;;;;;;;9.55;3.00;;;;;;;9.00;100.00;100080.47;6081402;19;20007;-71
2023/11/09 03:45:14;;;;;;;14.23;3.28;;;;;;;8.96;100.00;100076.28;6080168;19;20007;-71
2023/11/09 03:47:19;;;;;;;10.68;3.28;;;;;;;8.98;100.00;100084.06;6077215;19;20017;-72
2023/11/09 03:49:25;;;;;;;13.15;3.47;;;;;;;8.96;100.00;100078.03;6078061;19;20238;-71
2023/11/09 03:51:31;;;;;;;8.23;3.47;;;;;;;8.99;100.00;100064.78;6079775;19;20024;-71
2023/11/09 03:53:36;;;;;;;11.15;4.20;;;;;;;8.91;100.00;100062.53;6073347;19;20398;-71
2023/11/09 03:55:41;;;;;;;13.02;3.80;;;;;;;8.95;100.00;100063.22;6078375;19;20014;-71
2023/11/09 03:57:46;;;;;;;13.77;5.13;;;;;;;8.94;100.00;100070.25;6078436;19;20006;-71
2023/11/09 03:59:49;;;;;;;11.52;4.22;;;;;;;8.93;100.00;100068.56;6081244;19;20018;-72
2023/11/09 04:01:55;;;;;;;9.98;4.25;;;;;;;8.89;100.00;100066.13;6083149;19;20073;-72
2023/11/09 04:03:57;;;;;;;12.75;3.58;;;;;;;8.89;100.00;100066.97;6083535;19;20022;-72
2023/11/09 04:06:05;;;;;;;16.17;5.15;;;;;;;8.91;100.00;100056.44;6083064;19;20629;-72
2023/11/09 04:08:10;;;;;;;13.40;6.20;;;;;;;8.91;100.00;100072.16;6085360;19;20038;-72
2023/11/09 04:10:16;;;;;;;18.88;4.80;;;;;;;8.92;100.00;100079.09;6082015;19;20015;-70
2023/11/09 04:12:21;;;;;;;16.27;5.22;;;;;;;8.94;100.00;100070.25;6083773;19;20006;-71
2023/11/09 04:14:26;;;;;;;16.08;5.55;;;;;;;8.94;100.00;100077.25;6076402;19;20006;-71
2023/11/09 04:16:31;;;;;;;19.48;7.10;;;;;;;8.93;100.00;100080.81;6083243;19;20024;-71
2023/11/09 04:18:37;;;;;;;16.42;6.20;;;;;;;8.96;100.00;100075.44;6083517;19;20750;-71
2023/11/09 04:20:43;;;;;;;15.32;5.80;;;;;;;8.96;100.00;100078.88;6085611;19;20021;-71
2023/11/09 04:22:50;;;;;;;16.42;6.38;;;;;;;9.00;100.00;100083.09;6084806;19;20011;-71
2023/11/09 04:24:53;;;;;;;14.00;5.47;;;;;;;8.98;100.00;100086.69;6084209;19;20011;-71
2023/11/09 04:26:58;;;;;;;15.23;6.28;;;;;;;8.91;100.00;100087.88;6083491;19;20074;-71
2023/11/09 04:29:04;;;;;;;15.30;5.65;;;;;;;8.96;100.00;100081.50;6079642;19;20097;-71
2023/11/09 04:31:10;;;;;;;24.73;6.68;;;;;;;8.90;100.00;100080.94;6084099;19;20377;-71
2023/11/09 04:33:17;;;;;;;19.80;7.18;;;;;;;8.88;100.00;100075.78;6083560;19;20381;-70
2023/11/09 04:35:24;;;;;;;23.20;6.43;;;;;;;8.93;100.00;100070.34;6083063;19;20014;-71
2023/11/09 04:37:29;;;;;;;19.05;7.10;;;;;;;8.95;100.00;100071.09;6087812;19;20344;-71
2023/11/09 04:39:41;;;;;;;24.00;7.90;;;;;;;8.92;100.00;100072.06;6085036;19;20007;-72
2023/11/09 04:41:47;;;;;;;24.17;7.10;;;;;;;8.88;100.00;100069.69;6086999;19;20073;-72
2023/11/09 04:43:55;;;;;;;19.17;5.85;;;;;;;8.88;100.00;100069.69;6084686;19;20028;-72
2023/11/09 04:46:10;;;;;;;21.70;7.10;;;;;;;8.87;100.00;100071.44;6086210;19;20037;-71
2023/11/09 04:48:20;;;;;;;17.05;6.30;;;;;;;8.82;100.00;100070.81;6080275;19;20834;-71
2023/11/09 04:50:28;;;;;;;22.52;6.10;;;;;;;8.85;100.00;100073.31;6086160;19;20507;-73
2023/11/09 04:52:43;;;;;;;22.17;6.53;;;;;;;8.81;100.00;100076.97;6077450;19;20014;-71
2023/11/09 04:54:57;;;;;;;19.70;7.53;;;;;;;8.83;100.00;100071.66;6083329;19;20425;-71
2023/11/09 04:58:44;;;;;;;19.48;7.00;;;;;;;8.84;100.00;100079.44;6084508;19;20057;-71
2023/11/09 05:06:52;;;;;;;15.90;5.63;;;;;;;8.77;100.00;100075.41;6081221;19;20003;-70
2023/11/09 05:08:57;;;;;;;15.48;6.28;;;;;;;8.73;100.00;100077.31;6082395;19;20051;-71
2023/11/09 05:11:06;;;;;;;15.77;6.28;;;;;;;8.73;100.00;100079.09;6083129;19;20022;-72
2023/11/09 05:13:11;;;;;;;15.20;7.18;;;;;;;8.72;100.00;100077.41;6083525;19;20010;-71
2023/11/09 05:15:16;;;;;;;21.40;6.57;;;;;;;8.73;100.00;100077.31;6080819;19;20367;-71
2023/11/09 05:17:23;;;;;;;19.95;6.97;;;;;;;8.71;100.00;100073.91;6083186;19;20007;-71
2023/11/09 05:19:28;;;;;;;28.23;8.65;;;;;;;8.69;100.00;100074.88;6080358;19;20321;-70
2023/11/09 05:21:35;;;;;;;17.70;8.27;;;;;;;8.67;100.00;100082.00;6081738;19;20304;-70
2023/11/09 05:23:40;;;;;;;18.83;6.70;;;;;;;8.68;100.00;100088.91;6083168;19;20006;-70
2023/11/09 05:25:45;;;;;;;15.65;6.25;;;;;;;8.69;100.00;100088.88;6084043;19;20055;-72
2023/11/09 05:27:55;;;;;;;16.85;5.45;;;;;;;8.73;100.00;100094.81;6083557;19;20033;-72
2023/11/09 05:30:00;;;;;;;20.30;6.30;;;;;;;8.70;100.00;100093.16;6082827;19;20344;-71
2023/11/09 05:32:06;;;;;;;12.70;5.80;;;;;;;8.66;100.00;100099.47;6082773;19;20006;-69
2023/11/09 05:34:11;;;;;;;14.50;5.15;;;;;;;8.62;100.00;100097.91;6082347;19;20006;-70
2023/11/09 05:36:16;;;;;;;12.48;5.30;;;;;;;8.58;100.00;100093.69;6081156;19;20014;-70
2023/11/09 05:38:22;;;;;;;12.85;5.20;;;;;;;8.57;100.00;100086.78;6083439;19;20017;-71
2023/11/09 05:40:26;;;;;;;12.90;5.07;;;;;;;8.59;100.00;100087.56;6083255;19;20008;-70
2023/11/09 05:42:29;;;;;;;16.45;5.13;;;;;;;8.54;100.00;100093.00;6083925;19;20628;-71
2023/11/09 05:44:36;;;;;;;11.68;4.63;;;;;;;8.50;100.00;100090.56;6084687;19;20003;-72
2023/11/09 05:46:41;;;;;;;12.32;5.03;;;;;;;8.46;100.00;100089.03;6084999;19;20002;-70
2023/11/09 05:48:48;;;;;;;13.10;4.85;;;;;;;8.40;100.00;100092.75;6079896;19;20006;-70
2023/11/09 05:50:54;;;;;;;10.93;4.65;;;;;;;8.38;100.00;100097.19;6080172;19;20022;-71
2023/11/09 05:53:00;;;;;;;11.30;3.92;;;;;;;8.31;100.00;100098.34;6079295;19;20340;-71
2023/11/09 05:55:06;;;;;;;10.80;4.10;;;;;;;8.28;100.00;100101.09;6079701;19;20448;-71
2023/11/09 05:57:11;;;;;;;12.88;3.67;;;;;;;8.26;100.00;100109.00;6081128;19;20007;-71
2023/11/09 05:59:17;;;;;;;9.40;3.78;;;;;;;8.26;100.00;100105.56;6082967;19;20002;-71
2023/11/09 06:01:30;;;;;;;15.32;4.63;;;;;;;8.22;100.00;100099.59;6081337;19;20017;-71
2023/11/09 06:03:36;;;;;;;17.08;4.47;;;;;;;8.17;100.00;100103.34;6083385;19;21715;-71
2023/11/09 06:05:39;;;;;;;10.60;3.97;;;;;;;8.14;100.00;100106.94;6084759;19;20433;-71
2023/11/09 06:07:44;;;;;;;10.95;4.15;;;;;;;8.09;100.00;100106.28;6084811;19;20011;-70
2023/11/09 06:09:51;;;;;;;14.40;4.63;;;;;;;8.09;100.00;100111.50;6082864;19;20013;-70
2023/11/09 06:11:58;;;;;;;15.95;4.68;;;;;;;8.03;100.00;100114.34;6084489;19;20145;-71
2023/11/09 06:14:03;;;;;;;15.88;4.45;;;;;;;8.02;100.00;100117.91;6082213;19;20038;-72
2023/11/09 06:16:09;;;;;;;10.23;4.50;;;;;;;7.94;100.00;100117.38;6083444;19;20019;-72
2023/11/09 06:18:16;;;;;;;13.65;5.38;;;;;;;7.96;100.00;100110.31;6078055;19;20019;-72
2023/11/09 06:20:21;;;;;;;17.27;5.15;;;;;;;7.93;100.00;100120.91;6082869;19;20011;-71
2023/11/09 06:22:26;;;;;;;17.92;4.50;;;;;;;7.89;100.00;100117.56;6080542;19;20024;-70
2023/11/09 06:24:32;;;;;;;16.15;6.03;;;;;;;7.84;100.00;100122.13;6084405;19;20010;-71
2023/11/09 06:26:37;;;;;;;15.35;4.28;;;;;;;7.76;100.00;100118.97;6081708;19;20030;-71
2023/11/09 06:28:43;;;;;;;15.30;5.60;;;;;;;7.76;100.00;100116.34;6080720;19;20020;-70
2023/11/09 06:30:48;;;;;;;10.35;4.28;;;;;;;7.70;100.00;100125.31;6076107;19;20002;-71
2023/11/09 06:32:53;;;;;;;12.05;4.22;;;;;;;7.65;100.00;100119.41;6082606;19;20495;-70
2023/11/09 06:35:03;;;;;;;11.75;5.03;;;;;;;7.63;100.00;100116.00;6080261;19;20006;-71
2023/11/09 06:37:09;;;;;;;10.80;4.40;;;;;;;7.55;100.00;100125.91;6078608;19;20453;-71
2023/11/09 06:39:16;;;;;;;12.85;4.13;;;;;;;7.50;100.00;100117.38;6081243;19;20065;-71
2023/11/09 06:41:21;;;;;;;9.60;4.13;;;;;;;7.41;100.00;100121.22;6080924;19;20371;-71
2023/11/09 06:43:25;;;;;;;14.27;4.50;;;;;;;7.34;100.00;100123.22;6082359;19;20010;-70
2023/11/09 06:45:31;;;;;;;11.73;4.35;;;;;;;7.32;100.00;100125.06;6079588;19;20066;-72
2023/11/09 06:47:35;;;;;;;12.55;4.30;;;;;;;7.31;100.00;100131.19;6081707;19;20466;-70
2023/11/09 06:49:40;;;;;;;11.30;3.85;;;;;;;7.28;100.00;100126.06;6081762;19;20328;-71
2023/11/09 06:51:51;;;;;;;9.20;3.78;;;;;;;7.24;100.00;100132.31;6080275;19;20010;-71
2023/11/09 06:53:54;;;;;;;11.13;3.78;;;;;;;7.15;100.00;100130.91;6078960;19;20010;-71
2023/11/09 06:55:59;;;;;;;14.63;3.90;;;;;;;7.11;100.00;100136.28;6076681;19;20002;-72
2023/11/09 06:58:04;;;;;;;13.13;4.43;;;;;;;7.03;100.00;100134.84;6082429;19;20014;-72
2023/11/09 07:00:12;;;;;;;14.75;3.72;;;;;;;7.00;100.00;100134.09;6080370;19;20014;-72
2023/11/09 07:02:17;;;;;;;14.23;3.28;;;;;;;6.99;100.00;100133.25;6079514;19;20011;-72
2023/11/09 07:04:23;;;;;;;10.55;4.03;;;;;;;6.92;100.00;100138.75;6081310;19;20011;-71
2023/11/09 07:06:28;;;;;;;13.52;4.18;;;;;;;6.87;100.00;100140.66;6081441;19;20094;-71
2023/11/09 07:08:36;;;;;;;13.85;3.22;;;;;;;6.82;100.00;100146.94;6078824;19;20014;-72
2023/11/09 07:10:43;;;;;;;12.32;3.80;;;;;;;6.78;100.00;100150.53;6082546;19;20002;-71
2023/11/09 07:12:48;;;;;;;13.57;4.80;;;;;;;6.80;100.00;100150.50;6078298;19;20506;-70
2023/11/09 07:14:53;;;;;;;10.55;3.58;;;;;;;6.80;100.00;100153.13;6083141;19;20463;-70
2023/11/09 07:16:58;;;;;;;16.58;4.85;;;;;;;6.79;100.00;100156.63;6082227;19;20007;-70
2023/11/09 07:19:01;;;;;;;13.80;3.70;;;;;;;6.81;100.00;100152.19;6085156;19;20010;-70
2023/11/09 07:21:07;;;;;;;13.13;3.78;;;;;;;6.80;100.00;100146.13;6080862;19;20454;-70
2023/11/09 07:23:17;;;;;;;12.07;3.55;;;;;;;6.87;100.00;100148.50;6082679;19;20363;-71
2023/11/09 07:25:26;;;;;;;15.38;3.72;;;;;;;6.85;100.00;100148.56;6085142;19;20596;-71
2023/11/09 07:27:31;;;;;;;9.68;3.83;;;;;;;6.88;100.00;100152.84;6083304;19;20740;-71
2023/11/09 07:29:36;;;;;;;15.45;4.03;;;;;;;6.88;100.00;100153.69;6084407;19;20467;-71
2023/11/09 07:31:42;;;;;;;9.88;3.45;;;;;;;6.90;100.00;100151.88;6078475;19;20011;-71
2023/11/09 07:33:49;;;;;;;16.67;4.25;;;;;;;6.91;100.00;100145.72;6080738;19;20003;-70
2023/11/09 07:35:56;;;;;;;15.38;4.00;;;;;;;6.93;100.00;100149.16;6078573;19;20474;-71
2023/11/09 07:38:01;;;;;;;10.75;3.65;;;;;;;6.94;100.00;100156.06;6080850;19;20026;-71
2023/11/09 07:40:09;;;;;;;13.40;3.65;;;;;;;6.98;100.00;100152.44;6071468;19;20068;-70
2023/11/09 07:42:18;;;;;;;14.57;3.40;;;;;;;7.01;100.00;100160.16;6072631;19;20010;-72
2023/11/09 07:44:24;;;;;;;12.98;3.67;;;;;;;7.06;100.00;100164.34;6080117;19;20471;-72
2023/11/09 07:46:29;;;;;;;20.58;4.90;;;;;;;7.13;100.00;100163.22;6078455;19;20018;-71
2023/11/09 07:48:34;;;;;;;11.25;3.05;;;;;;;7.18;100.00;100166.53;6075578;19;20011;-72
2023/11/09 07:50:41;;;;;;;15.18;4.28;;;;;;;7.25;100.00;100168.00;6079851;19;20615;-72
2023/11/09 07:52:47;;;;;;;13.48;4.50;;;;;;;7.33;100.00;100162.50;6077548;19;20003;-72
2023/11/09 07:54:52;;;;;;;20.88;5.60;;;;;;;7.40;100.00;100166.59;6077151;19;20486;-70
2023/11/09 07:56:59;;;;;;;10.85;3.08;;;;;;;7.46;100.00;100159.34;6077481;19;20364;-72
2023/11/09 07:59:06;;;;;;;8.65;3.55;;;;;;;7.53;100.00;100159.97;6073768;19;20011;-72
2023/11/09 08:01:11;;;;;;;15.15;4.03;;;;;;;7.59;100.00;100162.34;6078324;19;20024;-72
2023/11/09 08:03:17;;;;;;;17.08;5.28;;;;;;;7.62;100.00;100153.53;6075991;19;20094;-71
2023/11/09 08:05:24;;;;;;;14.13;3.97;;;;;;;7.64;100.00;100165.63;6078962;19;20010;-71
2023/11/09 08:07:29;;;;;;;22.05;4.85;;;;;;;7.64;100.00;100165.63;6075582;19;20019;-72
2023/11/09 08:09:36;;;;;;;14.65;4.05;;;;;;;7.70;100.00;100164.53;6080076;19;20020;-71
2023/11/09 08:11:42;;;;;;;18.42;4.00;;;;;;;7.70;100.00;100161.91;6078052;19;20031;-72
2023/11/09 08:13:49;;;;;;;18.50;5.47;;;;;;;7.73;100.00;100159.16;6077862;19;20495;-71
2023/11/09 08:15:59;;;;;;;11.38;5.10;;;;;;;7.79;100.00;100150.22;6082885;19;20017;-71
2023/11/09 08:18:05;;;;;;;15.50;4.68;;;;;;;7.79;100.00;100148.44;6084304;19;20034;-71
2023/11/09 08:20:13;;;;;;;14.07;4.50;;;;;;;7.85;100.00;100147.38;6082188;19;20014;-71
2023/11/09 08:22:21;;;;;;;14.82;4.43;;;;;;;7.89;100.00;100141.94;6082134;19;20014;-71
2023/11/09 08:24:26;;;;;;;13.68;4.47;;;;;;;7.96;100.00;100147.78;6081066;19;20082;-73
2023/11/09 08:26:32;;;;;;;17.85;5.40;;;;;;;8.01;100.00;100158.06;6082330;19;20021;-72
2023/11/09 08:28:37;;;;;;;14.82;4.90;;;;;;;8.06;100.00;100158.75;6084237;19;20007;-72
2023/11/09 08:30:43;;;;;;;12.43;4.68;;;;;;;8.12;100.00;100150.63;6082040;19;20007;-72
2023/11/09 08:32:51;;;;;;;12.63;4.53;;;;;;;8.18;100.00;100154.75;6081032;19;22612;-71
2023/11/09 08:34:57;;;;;;;12.70;4.60;;;;;;;8.24;100.00;100157.09;6075560;19;20007;-71
2023/11/09 08:37:06;;;;;;;22.02;5.03;;;;;;;8.28;100.00;100158.69;6081342;19;20551;-72
2023/11/09 08:39:18;;;;;;;16.20;4.35;;;;;;;8.32;100.00;100153.28;6075302;19;20150;-71
2023/11/09 08:41:26;;;;;;;13.85;4.25;;;;;;;8.43;100.00;100149.38;6076750;19;20609;-71
2023/11/09 08:43:32;;;;;;;19.88;4.65;;;;;;;8.52;100.00;100151.59;6081729;19;20397;-71
2023/11/09 08:45:36;;;;;;;11.25;4.45;;;;;;;8.55;100.00;100151.44;6076332;19;20028;-72
2023/11/09 08:47:41;;;;;;;16.23;4.32;;;;;;;8.60;100.00;100146.03;6084159;19;20459;-71
2023/11/09 08:49:49;;;;;;;14.73;4.18;;;;;;;8.59;100.00;100145.19;6087745;19;20010;-71
2023/11/09 08:51:54;;;;;;;14.23;4.47;;;;;;;8.60;100.00;100146.03;6088628;19;20006;-71
2023/11/09 08:53:59;;;;;;;15.50;4.18;;;;;;;8.65;100.00;100150.13;6085748;19;20018;-71
2023/11/09 08:56:05;;;;;;;17.00;4.63;;;;;;;8.67;100.00;100145.69;6084008;19;20014;-71
2023/11/09 08:58:10;;;;;;;10.63;4.22;;;;;;;8.70;100.00;100142.94;6082217;19;20011;-71
2023/11/09 09:00:16;;;;;;;16.92;4.88;;;;;;;8.74;100.00;100149.75;6086523;19;20014;-72
2023/11/09 09:02:21;;;;;;;15.35;4.55;;;;;;;8.82;100.00;100138.06;6087843;19;20021;-72
2023/11/09 09:04:27;;;;;;;13.25;4.10;;;;;;;8.79;100.00;100145.16;6087252;19;20027;-72
2023/11/09 09:06:32;;;;;;;13.80;4.05;;;;;;;8.83;100.00;100137.16;6086094;19;20495;-72
2023/11/09 09:08:37;;;;;;;18.40;4.50;;;;;;;8.84;100.00;100136.22;6088368;19;20096;-72
2023/11/09 09:10:43;;;;;;;10.85;4.28;;;;;;;8.83;100.00;100137.16;6088445;19;20014;-72
2023/11/09 09:12:47;;;;;;;21.60;4.50;;;;;;;8.87;100.00;100138.72;6088725;19;20358;-71
2023/11/09 09:14:53;;;;;;;16.75;5.05;;;;;;;8.87;100.00;100139.56;6089045;19;20006;-71
2023/11/09 09:17:05;;;;;;;12.30;4.05;;;;;;;8.92;100.00;100137.59;6081860;19;19999;-70
2023/11/09 09:19:12;;;;;;;13.55;4.20;;;;;;;8.90;100.00;100141.19;6089614;19;20019;-71
2023/11/09 09:21:17;;;;;;;14.23;4.18;;;;;;;8.96;100.00;100135.69;6084308;19;20027;-71
2023/11/09 09:23:25;;;;;;;17.98;4.65;;;;;;;8.97;100.00;100132.13;6090055;19;20020;-72
2023/11/09 09:25:29;;;;;;;15.57;3.90;;;;;;;8.98;100.00;100128.63;6086760;19;20035;-71
2023/11/09 09:27:36;;;;;;;14.30;4.25;;;;;;;9.02;100.00;100119.69;6088785;19;20054;-72
2023/11/09 09:29:41;;;;;;;12.27;3.45;;;;;;;9.05;100.00;100119.53;6086372;19;20014;-71
2023/11/09 09:31:47;;;;;;;10.68;3.25;;;;;;;9.13;100.00;100117.41;6088797;19;20007;-71
2023/11/09 09:34:02;;;;;;;13.68;3.35;;;;;;;9.18;100.00;100118.06;6089272;19;20023;-72
2023/11/09 09:36:09;;;;;;;12.82;3.17;;;;;;;9.23;100.00;100112.59;6089280;19;20070;-70
2023/11/09 09:38:15;;;;;;;10.57;3.70;;;;;;;9.26;100.00;100114.22;6086554;19;20006;-71
2023/11/09 09:40:25;;;;;;;10.45;3.35;;;;;;;9.32;100.00;100111.31;6089840;19;20043;-71
2023/11/09 09:42:46;;;;;;;13.57;4.15;;;;;;;9.30;100.00;100116.66;6083634;19;20038;-70
2023/11/09 09:44:54;;;;;;;6.35;2.60;;;;;;;9.35;100.00;100119.91;6087196;19;20002;-71
2023/11/09 09:47:02;;;;;;;15.50;3.55;;;;;;;9.43;100.00;100120.38;6088074;19;20011;-71
2023/11/09 09:49:08;;;;;;;13.15;3.42;;;;;;;9.43;100.00;100120.38;6090700;19;20003;-71